Time;durP1;ratioP1;P1;durP2;ratioP2;P2;SDS_P1;SDS_P2;PMS_P1;PMS_P2;Temp;Humidity;BMP_temperature;BMP_pressure;BME280_temperature;BME280_humidity;BME280_pressure;Samples;Min_cycle;Max_cycle;Signal;HPM_P1;HPM_P2
2022/09/08 00:00:58;;;;;;;10.98;10.00;;;20.10;99.90;;;;;;2555730;23;20017;-73
2022/09/08 00:01:59;;;;;;;11.00;9.95;;;20.10;99.90;;;;;;2555746;23;20025;-73
2022/09/08 00:03:06;;;;;;;10.98;9.95;;;20.10;99.90;;;;;;2555443;23;20001;-73
2022/09/08 00:04:07;;;;;;;11.38;10.30;;;20.10;99.90;;;;;;2556004;23;20005;-73
2022/09/08 00:05:09;;;;;;;11.55;8.55;;;20.10;99.90;;;;;;2555816;23;20013;-73
2022/09/08 00:06:13;;;;;;;11.23;9.68;;;20.10;99.90;;;;;;2555043;23;20012;-73
2022/09/08 00:07:13;;;;;;;10.23;9.23;;;20.10;99.90;;;;;;2555819;23;20001;-73
2022/09/08 00:08:14;;;;;;;9.18;7.20;;;20.10;99.90;;;;;;2555761;23;20015;-73
2022/09/08 00:09:14;;;;;;;11.82;9.68;;;20.10;99.90;;;;;;2555850;23;20004;-73
2022/09/08 00:10:15;;;;;;;11.18;8.38;;;20.10;99.90;;;;;;2555818;23;20005;-73
2022/09/08 00:11:19;;;;;;;10.48;9.50;;;20.10;99.90;;;;;;2555155;23;20404;-73
2022/09/08 00:12:21;;;;;;;10.40;9.40;;;20.10;99.90;;;;;;2555812;23;20433;-73
2022/09/08 00:13:23;;;;;;;7.40;6.70;;;20.10;99.90;;;;;;2555474;23;19997;-73
2022/09/08 00:14:24;;;;;;;8.82;8.02;;;20.10;99.90;;;;;;2555642;23;20358;-73
2022/09/08 00:15:24;;;;;;;7.70;6.97;;;20.10;99.90;;;;;;2554801;23;20037;-73
2022/09/08 00:16:25;;;;;;;7.78;7.03;;;20.10;99.90;;;;;;2555320;23;20007;-73
2022/09/08 00:17:27;;;;;;;8.27;7.57;;;20.10;99.90;;;;;;2555464;23;20008;-73
2022/09/08 00:18:28;;;;;;;7.88;7.28;;;20.10;99.90;;;;;;2556056;23;20023;-73
2022/09/08 00:19:29;;;;;;;11.20;8.55;;;20.10;99.90;;;;;;2554936;23;20020;-73
2022/09/08 00:20:30;;;;;;;10.00;8.95;;;20.10;99.90;;;;;;2554728;23;20054;-73
2022/09/08 00:21:31;;;;;;;10.00;9.10;;;20.10;99.90;;;;;;2555461;23;20000;-73
2022/09/08 00:22:31;;;;;;;7.50;6.82;;;20.10;99.90;;;;;;2555964;23;20322;-73
2022/09/08 00:23:32;;;;;;;6.68;5.72;;;20.10;99.90;;;;;;2555044;23;20005;-73
2022/09/08 00:24:33;;;;;;;6.07;5.47;;;20.10;99.90;;;;;;2555424;23;20385;-73
2022/09/08 00:25:34;;;;;;;7.45;6.70;;;20.10;99.90;;;;;;2554230;23;20009;-73
2022/09/08 00:26:34;;;;;;;9.35;8.40;;;20.00;99.90;;;;;;2554777;23;20000;-73
2022/09/08 00:27:35;;;;;;;9.48;8.02;;;20.00;99.90;;;;;;2555560;23;20001;-73
2022/09/08 00:28:36;;;;;;;9.63;7.30;;;20.00;99.90;;;;;;2554897;23;20326;-73
2022/09/08 00:29:36;;;;;;;7.63;6.93;;;20.10;99.90;;;;;;2554887;23;20001;-73
2022/09/08 00:30:37;;;;;;;6.55;5.95;;;20.00;99.90;;;;;;2555106;23;20032;-73
2022/09/08 00:31:39;;;;;;;8.07;6.85;;;20.00;99.90;;;;;;2555873;23;20087;-73
2022/09/08 00:32:40;;;;;;;9.85;8.82;;;20.10;99.90;;;;;;2555331;23;20001;-73
2022/09/08 00:33:42;;;;;;;7.53;6.93;;;20.10;99.90;;;;;;2555330;23;20023;-73
2022/09/08 00:34:42;;;;;;;9.82;8.90;;;20.00;99.90;;;;;;2556289;23;20024;-73
2022/09/08 00:35:44;;;;;;;10.65;9.60;;;20.00;99.90;;;;;;2555218;23;20036;-73
2022/09/08 00:36:44;;;;;;;10.40;9.50;;;20.00;99.90;;;;;;2555319;23;20076;-73
2022/09/08 00:37:46;;;;;;;11.80;10.50;;;20.00;99.90;;;;;;2555771;23;20011;-73
2022/09/08 00:38:53;;;;;;;11.95;10.45;;;20.00;99.90;;;;;;2555251;23;19997;-73
2022/09/08 00:39:53;;;;;;;13.15;10.32;;;20.00;99.90;;;;;;2555694;23;21105;-73
2022/09/08 00:40:54;;;;;;;10.88;9.68;;;20.00;99.90;;;;;;2555852;23;20084;-73
2022/09/08 00:41:55;;;;;;;10.98;9.90;;;20.00;99.90;;;;;;2554486;23;20015;-72
2022/09/08 00:43:02;;;;;;;13.07;10.10;;;20.00;99.90;;;;;;2555014;23;20096;-73
2022/09/08 00:44:53;;;;;;;9.73;8.77;;;20.00;99.90;;;;;;2555027;23;20377;-73
2022/09/08 00:45:54;;;;;;;7.47;6.80;;;20.00;99.90;;;;;;2537452;23;20017;-73
2022/09/08 00:46:55;;;;;;;7.90;7.05;;;20.00;99.90;;;;;;2555388;23;20081;-73
2022/09/08 00:48:03;;;;;;;9.38;8.50;;;20.00;99.90;;;;;;2554528;23;20009;-73
2022/09/08 00:49:21;;;;;;;8.57;7.75;;;20.00;99.90;;;;;;2554875;23;20005;-73
2022/09/08 00:50:25;;;;;;;8.90;8.00;;;20.00;99.90;;;;;;2555649;23;20005;-72
2022/09/08 00:51:27;;;;;;;8.52;7.72;;;20.00;99.90;;;;;;2555603;23;20039;-73
2022/09/08 00:52:32;;;;;;;9.82;8.82;;;20.00;99.90;;;;;;2560345;23;20019;-73
2022/09/08 00:53:37;;;;;;;9.25;8.45;;;20.10;99.90;;;;;;2554131;23;20433;-73
2022/09/08 00:54:38;;;;;;;10.18;9.38;;;20.10;99.90;;;;;;2555729;23;20009;-73
2022/09/08 00:55:39;;;;;;;9.95;9.05;;;20.10;99.90;;;;;;2568200;23;20009;-73
2022/09/08 00:56:41;;;;;;;10.00;8.85;;;20.10;99.90;;;;;;2568007;23;20000;-73
2022/09/08 00:57:42;;;;;;;11.70;9.63;;;20.10;99.90;;;;;;2554727;23;20001;-73
2022/09/08 00:58:43;;;;;;;10.85;9.77;;;20.10;99.90;;;;;;2554775;23;20001;-73
2022/09/08 00:59:46;;;;;;;10.52;9.43;;;20.10;99.90;;;;;;2567448;23;20012;-73
2022/09/08 01:00:48;;;;;;;9.73;8.77;;;20.10;99.90;;;;;;2568066;23;20016;-73
2022/09/08 01:01:50;;;;;;;11.00;9.30;;;20.10;99.90;;;;;;2568195;23;20358;-73
2022/09/08 01:02:50;;;;;;;9.88;8.88;;;20.10;99.90;;;;;;2567720;23;20334;-73
2022/09/08 01:03:52;;;;;;;10.90;9.80;;;20.10;99.90;;;;;;2554556;23;20013;-73
2022/09/08 01:04:57;;;;;;;13.55;9.50;;;20.10;99.90;;;;;;2555102;23;20072;-73
2022/09/08 01:06:21;;;;;;;9.90;9.07;;;20.10;99.90;;;;;;2554062;23;20040;-73
2022/09/08 01:13:40;;;;;;;8.88;8.00;;;20.00;99.90;;;;;;2567706;23;20004;-72
2022/09/08 01:14:52;;;;;;;8.98;8.18;;;20.00;99.90;;;;;;2554856;23;20047;-73
2022/09/08 01:15:55;;;;;;;8.70;7.85;;;20.00;99.90;;;;;;2556501;23;20009;-73
2022/09/08 01:16:55;;;;;;;8.95;8.15;;;20.00;99.90;;;;;;2554330;23;20716;-73
2022/09/08 01:17:56;;;;;;;9.45;8.60;;;20.00;99.90;;;;;;2554711;23;20644;-73
2022/09/08 01:18:57;;;;;;;9.15;8.27;;;20.10;99.90;;;;;;2567764;23;20084;-73
2022/09/08 01:20:00;;;;;;;11.02;9.60;;;20.10;99.90;;;;;;2567947;23;20020;-73
2022/09/08 01:21:45;;;;;;;11.98;8.13;;;20.10;99.90;;;;;;2554005;23;20005;-73
2022/09/08 01:23:14;;;;;;;8.52;7.72;;;20.10;99.90;;;;;;2551460;23;20005;-73
2022/09/08 01:25:02;;;;;;;7.97;7.28;;;20.10;99.90;;;;;;2567415;23;20086;-73
2022/09/08 01:26:21;;;;;;;9.65;8.18;;;20.00;99.90;;;;;;2535004;23;20017;-73
2022/09/08 01:27:30;;;;;;;10.68;8.35;;;20.00;99.90;;;;;;2558834;23;20005;-73
2022/09/08 01:28:54;;;;;;;10.05;8.57;;;20.10;99.90;;;;;;2567756;23;20382;-73
2022/09/08 01:30:00;;;;;;;9.43;8.52;;;20.10;99.90;;;;;;2554763;23;20347;-72
2022/09/08 01:31:03;;;;;;;10.25;9.32;;;20.00;99.90;;;;;;2555904;23;20076;-73
2022/09/08 01:32:04;;;;;;;9.77;8.88;;;20.00;99.90;;;;;;2554743;23;20016;-72
2022/09/08 01:33:07;;;;;;;10.27;8.60;;;20.10;99.90;;;;;;2554524;23;20008;-73
2022/09/08 01:34:08;;;;;;;9.60;8.60;;;20.10;99.90;;;;;;2567746;23;20178;-73
2022/09/08 01:35:08;;;;;;;9.98;8.98;;;20.10;99.90;;;;;;2567794;23;20009;-72
2022/09/08 01:36:11;;;;;;;10.20;9.30;;;20.10;99.90;;;;;;2568123;23;20000;-73
2022/09/08 01:37:12;;;;;;;9.95;8.95;;;20.10;99.90;;;;;;2568438;23;20004;-73
2022/09/08 01:38:13;;;;;;;11.52;8.75;;;20.10;99.90;;;;;;2567526;23;20005;-73
2022/09/08 01:39:14;;;;;;;11.63;9.32;;;20.10;99.90;;;;;;2554707;23;20016;-73
2022/09/08 01:40:14;;;;;;;10.30;9.32;;;20.20;99.90;;;;;;2554126;23;20012;-73
2022/09/08 01:41:15;;;;;;;9.55;8.65;;;20.10;99.90;;;;;;2554650;23;20020;-73
2022/09/08 01:42:15;;;;;;;8.80;8.10;;;20.10;99.90;;;;;;2554683;23;20004;-73
2022/09/08 01:43:16;;;;;;;9.20;8.25;;;20.10;99.90;;;;;;2567192;23;20138;-73
2022/09/08 01:44:17;;;;;;;11.13;8.13;;;20.10;99.90;;;;;;2568212;23;20080;-73
2022/09/08 01:45:18;;;;;;;8.18;7.43;;;20.10;99.90;;;;;;2567638;23;20008;-73
2022/09/08 01:46:18;;;;;;;8.65;7.85;;;20.10;99.90;;;;;;2567490;23;20075;-73
2022/09/08 01:47:19;;;;;;;11.82;8.77;;;20.10;99.90;;;;;;2567752;23;20004;-73
2022/09/08 01:48:19;;;;;;;9.80;8.32;;;20.10;99.90;;;;;;2554392;23;20038;-73
2022/09/08 01:49:20;;;;;;;9.45;8.20;;;20.10;99.90;;;;;;2553166;23;20036;-73
2022/09/08 01:50:21;;;;;;;9.90;7.30;;;20.10;99.90;;;;;;2567684;23;20099;-73
2022/09/08 01:51:21;;;;;;;8.35;7.38;;;20.10;99.90;;;;;;2567305;23;20032;-73
2022/09/08 01:52:22;;;;;;;7.88;7.10;;;20.10;99.90;;;;;;2567622;23;19997;-73
2022/09/08 01:53:22;;;;;;;7.93;7.22;;;20.10;99.90;;;;;;2567089;23;20004;-73
2022/09/08 01:54:23;;;;;;;6.90;6.30;;;20.10;99.90;;;;;;2554705;23;20005;-73
2022/09/08 01:55:24;;;;;;;7.47;6.50;;;20.10;99.90;;;;;;2554593;23;20415;-73
2022/09/08 01:56:24;;;;;;;7.22;6.63;;;20.10;99.90;;;;;;2567301;23;20495;-73
2022/09/08 01:57:25;;;;;;;7.07;6.47;;;20.10;99.90;;;;;;2567787;23;20500;-73
2022/09/08 01:58:26;;;;;;;7.78;6.70;;;20.10;99.90;;;;;;2567809;23;20420;-73
2022/09/08 01:59:26;;;;;;;8.10;6.95;;;20.10;99.90;;;;;;2554773;23;20009;-73
2022/09/08 02:00:27;;;;;;;7.10;6.40;;;20.10;99.90;;;;;;2554658;23;20012;-73
2022/09/08 02:01:28;;;;;;;7.00;6.40;;;20.10;99.90;;;;;;2567476;23;20413;-73
2022/09/08 02:02:28;;;;;;;8.70;7.03;;;20.10;99.90;;;;;;2553997;23;20059;-73
2022/09/08 02:03:29;;;;;;;7.25;6.65;;;20.10;99.90;;;;;;2554370;23;20042;-73
2022/09/08 02:04:29;;;;;;;7.55;6.00;;;20.10;99.90;;;;;;2567900;23;20011;-73
2022/09/08 02:05:30;;;;;;;6.72;6.03;;;20.10;99.90;;;;;;2567272;23;20061;-73
2022/09/08 02:06:30;;;;;;;7.22;6.40;;;20.10;99.90;;;;;;2567735;23;20036;-73
2022/09/08 02:07:32;;;;;;;8.48;6.38;;;20.10;99.90;;;;;;2554246;23;20009;-73
2022/09/08 02:08:35;;;;;;;10.00;6.47;;;20.10;99.90;;;;;;2554522;23;19997;-73
2022/09/08 02:09:36;;;;;;;8.98;6.63;;;20.10;99.90;;;;;;2567897;23;20378;-73
2022/09/08 02:10:38;;;;;;;6.82;6.22;;;20.10;99.90;;;;;;2567097;23;20004;-73
2022/09/08 02:11:39;;;;;;;7.32;6.68;;;20.10;99.90;;;;;;2567884;23;20000;-73
2022/09/08 02:12:39;;;;;;;9.35;6.75;;;20.10;99.90;;;;;;2554345;23;20036;-73
2022/09/08 02:13:40;;;;;;;6.95;6.25;;;20.10;99.90;;;;;;2554073;23;20048;-73
2022/09/08 02:14:40;;;;;;;7.20;6.50;;;20.10;99.90;;;;;;2567747;23;20035;-73
2022/09/08 02:15:41;;;;;;;7.63;6.03;;;20.10;99.90;;;;;;2567474;23;20004;-73
2022/09/08 02:16:42;;;;;;;9.07;5.85;;;20.10;99.90;;;;;;2567222;23;20087;-73
2022/09/08 02:17:42;;;;;;;6.55;5.75;;;20.10;99.90;;;;;;2553022;23;20016;-73
2022/09/08 02:18:43;;;;;;;6.03;5.45;;;20.10;99.90;;;;;;2554659;23;20051;-73
2022/09/08 02:19:43;;;;;;;7.45;6.05;;;20.10;99.90;;;;;;2567747;23;20008;-72
2022/09/08 02:20:44;;;;;;;7.15;5.80;;;20.10;99.90;;;;;;2567745;23;20009;-73
2022/09/08 02:21:44;;;;;;;7.03;5.25;;;20.10;99.90;;;;;;2567388;23;20043;-73
2022/09/08 02:22:45;;;;;;;7.78;5.15;;;20.10;99.90;;;;;;2567871;23;20055;-73
2022/09/08 02:23:48;;;;;;;5.32;4.82;;;20.10;99.90;;;;;;2567118;23;20024;-73
2022/09/08 02:24:49;;;;;;;6.07;5.47;;;20.10;99.90;;;;;;2567332;23;20027;-73
2022/09/08 02:25:54;;;;;;;6.40;4.90;;;20.10;99.90;;;;;;2566813;23;20040;-73
2022/09/08 02:26:55;;;;;;;6.68;4.93;;;20.10;99.90;;;;;;2567540;23;20000;-73
2022/09/08 02:27:56;;;;;;;7.05;4.88;;;20.10;99.90;;;;;;2567651;23;20441;-73
2022/09/08 02:28:57;;;;;;;5.07;4.32;;;20.10;99.90;;;;;;2568009;23;20011;-73
2022/09/08 02:29:58;;;;;;;5.43;4.45;;;20.10;99.90;;;;;;2567867;23;20012;-73
2022/09/08 02:31:01;;;;;;;8.35;5.13;;;20.10;99.90;;;;;;2567335;23;20000;-73
2022/09/08 02:32:02;;;;;;;6.10;4.63;;;20.10;99.90;;;;;;2567836;23;19992;-73
2022/09/08 02:33:02;;;;;;;7.57;4.60;;;20.10;99.90;;;;;;2567100;23;20102;-73
2022/09/08 02:34:04;;;;;;;8.35;4.53;;;20.00;99.90;;;;;;2567534;23;20027;-73
2022/09/08 02:35:05;;;;;;;4.55;4.03;;;20.10;99.90;;;;;;2567407;23;20072;-73
2022/09/08 02:36:06;;;;;;;4.90;4.20;;;20.10;99.90;;;;;;2567520;23;20368;-73
2022/09/08 02:37:07;;;;;;;6.05;4.35;;;20.00;99.90;;;;;;2567880;23;20008;-72
2022/09/08 02:38:08;;;;;;;6.85;4.50;;;20.10;99.90;;;;;;2567642;23;20004;-73
2022/09/08 02:39:15;;;;;;;4.80;4.32;;;20.10;99.90;;;;;;2567839;23;20007;-73
2022/09/08 02:40:16;;;;;;;4.95;4.10;;;20.10;99.90;;;;;;2567928;23;20080;-73
2022/09/08 02:41:17;;;;;;;4.85;4.05;;;20.10;99.90;;;;;;2567443;23;20000;-73
2022/09/08 02:42:17;;;;;;;6.65;3.80;;;20.10;99.90;;;;;;2567355;23;20013;-73
2022/09/08 02:43:18;;;;;;;5.35;3.83;;;20.10;99.90;;;;;;2567242;23;20005;-73
2022/09/08 02:44:19;;;;;;;4.30;3.90;;;20.20;99.90;;;;;;2567636;23;19997;-73
2022/09/08 02:45:19;;;;;;;4.55;3.30;;;20.10;99.90;;;;;;2567950;23;20001;-73
2022/09/08 02:46:20;;;;;;;6.05;4.30;;;20.20;99.90;;;;;;2566958;23;19997;-73
2022/09/08 02:47:21;;;;;;;6.13;3.70;;;20.20;99.90;;;;;;2567917;23;20341;-73
2022/09/08 02:48:21;;;;;;;4.18;3.72;;;20.20;99.90;;;;;;2567481;23;20001;-73
2022/09/08 02:49:22;;;;;;;5.25;3.88;;;20.20;99.90;;;;;;2567372;23;20000;-73
2022/09/08 02:50:23;;;;;;;4.07;3.60;;;20.20;99.90;;;;;;2567974;23;20354;-73
2022/09/08 02:51:24;;;;;;;3.97;3.60;;;20.20;99.90;;;;;;2567168;23;20000;-73
2022/09/08 02:52:24;;;;;;;6.47;4.05;;;20.20;99.90;;;;;;2554450;23;20005;-73
2022/09/08 02:53:25;;;;;;;4.97;3.55;;;20.20;99.90;;;;;;2554147;23;20357;-73
2022/09/08 02:54:26;;;;;;;4.22;3.83;;;20.20;99.90;;;;;;2554660;23;20005;-72
2022/09/08 02:55:27;;;;;;;4.93;3.97;;;20.20;99.90;;;;;;2553130;23;20009;-73
2022/09/08 02:56:27;;;;;;;5.18;3.72;;;20.30;99.90;;;;;;2553588;23;20015;-73
2022/09/08 02:57:28;;;;;;;3.97;3.55;;;20.30;99.90;;;;;;2555131;23;20005;-73
2022/09/08 02:58:29;;;;;;;8.00;3.30;;;20.30;99.90;;;;;;2555374;23;20005;-73
2022/09/08 02:59:29;;;;;;;2.90;2.70;;;20.30;99.90;;;;;;2555227;23;20012;-73
2022/09/08 03:00:32;;;;;;;5.05;3.38;;;20.30;99.90;;;;;;2555756;23;20037;-73
2022/09/08 03:01:33;;;;;;;6.13;3.58;;;20.30;99.90;;;;;;2555249;23;19997;-73
2022/09/08 03:02:33;;;;;;;4.22;3.50;;;20.30;99.90;;;;;;2555245;23;20001;-73
2022/09/08 03:03:34;;;;;;;6.10;3.60;;;20.30;99.90;;;;;;2555400;23;20005;-73
2022/09/08 03:04:34;;;;;;;6.20;3.38;;;20.30;99.90;;;;;;2555763;23;20434;-73
2022/09/08 03:05:35;;;;;;;4.10;3.65;;;20.30;99.90;;;;;;2555622;23;20429;-73
2022/09/08 03:06:37;;;;;;;3.35;3.08;;;20.30;99.90;;;;;;2555943;23;20043;-73
2022/09/08 03:07:38;;;;;;;3.83;3.40;;;20.30;99.90;;;;;;2555895;23;20001;-73
2022/09/08 03:08:38;;;;;;;7.13;3.70;;;20.30;99.90;;;;;;2555794;23;20430;-73
2022/09/08 03:09:39;;;;;;;4.22;3.20;;;20.40;99.90;;;;;;2555307;23;20091;-73
2022/09/08 03:10:40;;;;;;;3.78;3.20;;;20.40;99.90;;;;;;2555145;23;20101;-73
2022/09/08 03:11:41;;;;;;;3.53;3.22;;;20.40;99.90;;;;;;2555970;23;20112;-73
2022/09/08 03:12:43;;;;;;;5.85;3.08;;;20.30;99.90;;;;;;2556257;23;20004;-73
2022/09/08 03:13:44;;;;;;;3.70;3.40;;;20.40;99.90;;;;;;2555697;23;20414;-72
2022/09/08 03:14:45;;;;;;;4.57;3.30;;;20.40;99.90;;;;;;2555889;23;20365;-73
2022/09/08 03:15:45;;;;;;;7.15;3.55;;;20.40;99.90;;;;;;2554906;23;20008;-73
2022/09/08 03:16:46;;;;;;;4.45;3.00;;;20.40;99.90;;;;;;2554368;23;20382;-72
2022/09/08 03:17:47;;;;;;;3.22;2.92;;;20.40;99.90;;;;;;2554938;23;20016;-72
2022/09/08 03:18:48;;;;;;;4.78;3.33;;;20.40;99.90;;;;;;2556215;23;20059;-72
2022/09/08 03:19:49;;;;;;;5.18;3.38;;;20.40;99.90;;;;;;2556341;23;20337;-73
2022/09/08 03:21:09;;;;;;;4.78;3.33;;;20.40;99.90;;;;;;2555732;23;20036;-72
2022/09/08 03:22:09;;;;;;;10.95;3.40;;;20.40;99.90;;;;;;2555537;23;20088;-72
2022/09/08 03:23:19;;;;;;;8.38;3.53;;;20.40;99.90;;;;;;2554672;23;20009;-72
2022/09/08 03:24:19;;;;;;;5.07;2.87;;;20.50;99.90;;;;;;2555722;23;20005;-72
2022/09/08 03:25:20;;;;;;;4.72;3.15;;;20.40;99.90;;;;;;2555923;23;20009;-73
2022/09/08 03:26:22;;;;;;;5.35;3.35;;;20.40;99.90;;;;;;2555528;23;20047;-73
2022/09/08 03:27:22;;;;;;;4.32;3.25;;;20.40;99.90;;;;;;2555305;23;20050;-72
2022/09/08 03:28:24;;;;;;;3.92;3.08;;;20.50;99.90;;;;;;2555199;23;20088;-72
2022/09/08 03:29:24;;;;;;;3.85;2.90;;;20.40;99.90;;;;;;2555492;23;20008;-72
2022/09/08 03:30:25;;;;;;;3.67;3.28;;;20.50;99.90;;;;;;2556074;23;20013;-72
2022/09/08 03:31:26;;;;;;;4.70;3.42;;;20.50;99.90;;;;;;2555708;23;20001;-72
2022/09/08 03:32:27;;;;;;;3.30;3.00;;;20.50;99.90;;;;;;2555796;23;20008;-72
2022/09/08 03:33:28;;;;;;;4.53;3.22;;;20.50;99.90;;;;;;2555530;23;20071;-72
2022/09/08 03:34:29;;;;;;;3.75;3.17;;;20.50;99.90;;;;;;2555858;23;20790;-72
2022/09/08 03:35:30;;;;;;;4.43;3.78;;;20.50;99.90;;;;;;2555629;23;20106;-73
2022/09/08 03:36:30;;;;;;;4.50;3.50;;;20.50;99.90;;;;;;2555836;23;20009;-73
2022/09/08 03:37:31;;;;;;;4.80;3.35;;;20.50;99.90;;;;;;2555046;23;20012;-72
2022/09/08 03:38:32;;;;;;;4.22;3.55;;;20.50;99.90;;;;;;2554848;23;20001;-73
2022/09/08 03:39:36;;;;;;;4.25;3.33;;;20.50;99.90;;;;;;2556197;23;20076;-73
2022/09/08 03:40:39;;;;;;;4.88;3.13;;;20.50;99.90;;;;;;2555847;23;19997;-72
2022/09/08 03:41:39;;;;;;;5.45;3.97;;;20.50;99.90;;;;;;2555954;23;20084;-72
2022/09/08 03:42:41;;;;;;;5.13;3.60;;;20.50;99.90;;;;;;2555834;23;20009;-73
2022/09/08 03:43:44;;;;;;;4.63;3.92;;;20.50;99.90;;;;;;2554810;23;20005;-73
2022/09/08 03:44:45;;;;;;;4.95;4.35;;;20.50;99.90;;;;;;2554777;23;20009;-72
2022/09/08 03:45:45;;;;;;;5.72;3.40;;;20.40;99.90;;;;;;2555678;23;20005;-73
2022/09/08 03:46:46;;;;;;;7.47;4.20;;;20.40;99.90;;;;;;2555767;23;20487;-73
2022/09/08 03:47:47;;;;;;;7.13;4.05;;;20.40;99.90;;;;;;2555834;23;19997;-72
2022/09/08 03:48:47;;;;;;;4.40;3.67;;;20.50;99.90;;;;;;2555064;23;20468;-73
2022/09/08 03:49:48;;;;;;;6.50;4.32;;;20.50;99.90;;;;;;2555950;23;20017;-72
2022/09/08 03:50:49;;;;;;;8.05;4.70;;;20.50;99.90;;;;;;2555601;23;19997;-72
2022/09/08 03:51:49;;;;;;;5.03;4.00;;;20.50;99.90;;;;;;2555958;23;20040;-72
2022/09/08 03:52:50;;;;;;;4.63;3.83;;;20.50;99.90;;;;;;2564760;23;20083;-73
2022/09/08 03:54:46;;;;;;;4.30;3.95;;;20.50;99.90;;;;;;2567693;23;19997;-73
2022/09/08 03:55:15;;;;;;;4.57;3.65;;;20.50;99.90;;;;;;2568159;23;20009;-72
2022/09/08 03:56:16;;;;;;;5.10;4.07;;;20.50;99.90;;;;;;2567557;23;20009;-72
2022/09/08 03:57:21;;;;;;;5.97;4.00;;;20.50;99.90;;;;;;2567945;23;20000;-73
2022/09/08 03:58:22;;;;;;;5.20;3.55;;;20.50;99.90;;;;;;2568335;23;20005;-72
2022/09/08 03:59:23;;;;;;;6.13;4.20;;;20.50;99.90;;;;;;2554902;23;20008;-72
2022/09/08 04:00:23;;;;;;;4.88;3.80;;;20.60;99.90;;;;;;2555146;23;20401;-72
2022/09/08 04:01:24;;;;;;;5.95;3.95;;;20.60;99.90;;;;;;2568266;23;20044;-72
2022/09/08 04:02:26;;;;;;;5.80;3.80;;;20.60;99.90;;;;;;2568140;23;20004;-72
2022/09/08 04:03:28;;;;;;;5.43;3.80;;;20.50;99.90;;;;;;2567864;23;20047;-72
2022/09/08 04:04:30;;;;;;;6.05;4.20;;;20.60;99.90;;;;;;2568193;23;20005;-72
2022/09/08 04:05:31;;;;;;;5.22;3.88;;;20.60;99.90;;;;;;2554505;23;20068;-72
2022/09/08 04:06:31;;;;;;;4.72;3.72;;;20.60;99.90;;;;;;2555097;23;20072;-72
2022/09/08 04:07:34;;;;;;;3.38;3.03;;;20.60;99.90;;;;;;2567665;23;19996;-72
2022/09/08 04:08:35;;;;;;;5.90;3.10;;;20.60;99.90;;;;;;2568210;23;20004;-72
2022/09/08 04:09:37;;;;;;;4.90;2.90;;;20.60;99.90;;;;;;2568259;23;20020;-72
2022/09/08 04:10:41;;;;;;;6.53;3.72;;;20.60;99.90;;;;;;2568093;23;20001;-72
2022/09/08 04:11:41;;;;;;;5.55;3.03;;;20.60;99.90;;;;;;2554862;23;20004;-72
2022/09/08 04:12:42;;;;;;;4.80;2.70;;;20.60;99.90;;;;;;2554771;23;20016;-72
2022/09/08 04:13:42;;;;;;;4.43;2.60;;;20.60;99.90;;;;;;2567569;23;19999;-72
2022/09/08 04:14:45;;;;;;;5.20;2.20;;;20.60;99.90;;;;;;2568203;23;20001;-73
2022/09/08 04:15:46;;;;;;;3.42;2.55;;;20.60;99.90;;;;;;2568190;23;20682;-72
2022/09/08 04:16:47;;;;;;;4.93;2.72;;;20.60;99.90;;;;;;2567926;23;20325;-72
2022/09/08 04:17:47;;;;;;;4.22;2.40;;;20.60;99.90;;;;;;2567791;23;20032;-73
2022/09/08 04:18:48;;;;;;;4.70;3.00;;;20.60;99.90;;;;;;2568218;23;20096;-73
2022/09/08 04:19:50;;;;;;;4.05;2.10;;;20.60;99.90;;;;;;2568442;23;20005;-73
2022/09/08 04:20:59;;;;;;;3.20;2.28;;;20.60;99.90;;;;;;2568123;23;20431;-72
2022/09/08 04:21:59;;;;;;;5.68;2.40;;;20.60;99.90;;;;;;2554638;23;20013;-72
2022/09/08 04:23:00;;;;;;;2.55;2.33;;;20.60;99.90;;;;;;2554296;23;20036;-72
2022/09/08 04:24:01;;;;;;;3.55;2.10;;;20.60;99.90;;;;;;2568315;23;20382;-73
2022/09/08 04:25:02;;;;;;;3.58;2.10;;;20.60;99.90;;;;;;2567966;23;20112;-72
2022/09/08 04:26:05;;;;;;;3.28;2.00;;;20.60;99.90;;;;;;2554402;23;20016;-72
2022/09/08 04:27:06;;;;;;;2.75;1.85;;;20.60;99.90;;;;;;2555391;23;20095;-72
2022/09/08 04:28:06;;;;;;;3.90;2.20;;;20.60;99.90;;;;;;2568347;23;20008;-72
2022/09/08 04:29:07;;;;;;;3.58;1.75;;;20.60;99.90;;;;;;2568072;23;20438;-72
2022/09/08 04:30:09;;;;;;;3.33;1.67;;;20.60;99.90;;;;;;2568239;23;20087;-72
2022/09/08 04:31:12;;;;;;;4.25;1.90;;;20.60;99.90;;;;;;2567980;23;20023;-72
2022/09/08 04:32:12;;;;;;;4.03;1.80;;;20.60;99.90;;;;;;2567717;23;20009;-73
2022/09/08 04:33:13;;;;;;;3.63;1.80;;;20.60;99.90;;;;;;2567750;23;20001;-73
2022/09/08 04:34:14;;;;;;;1.55;1.40;;;20.60;99.90;;;;;;2554582;23;20005;-72
2022/09/08 04:35:15;;;;;;;1.58;1.48;;;20.60;99.90;;;;;;2555156;23;20080;-72
2022/09/08 04:36:18;;;;;;;2.10;1.65;;;20.50;99.90;;;;;;2567717;23;20088;-72
2022/09/08 04:37:20;;;;;;;2.00;1.40;;;20.60;99.90;;;;;;2567971;23;20009;-72
2022/09/08 04:38:20;;;;;;;3.15;1.70;;;20.50;99.90;;;;;;2555096;23;20689;-73
2022/09/08 04:39:21;;;;;;;1.75;1.42;;;20.50;99.90;;;;;;2554382;23;20314;-73
2022/09/08 04:40:22;;;;;;;1.60;1.50;;;20.50;99.90;;;;;;2568357;23;20007;-72
2022/09/08 04:41:23;;;;;;;1.70;1.42;;;20.50;99.90;;;;;;2568025;23;20035;-73
2022/09/08 04:42:23;;;;;;;1.60;1.50;;;20.50;99.90;;;;;;2567917;23;20012;-73
2022/09/08 04:43:24;;;;;;;2.22;1.35;;;20.60;99.90;;;;;;2568000;23;20008;-72
2022/09/08 04:44:25;;;;;;;4.43;2.08;;;20.60;99.90;;;;;;2568431;23;20433;-73
2022/09/08 04:45:25;;;;;;;3.20;1.42;;;20.50;99.90;;;;;;2567509;23;20087;-73
2022/09/08 04:46:27;;;;;;;2.45;1.60;;;20.60;99.90;;;;;;2554712;23;20416;-73
2022/09/08 04:47:27;;;;;;;1.60;1.40;;;20.50;99.90;;;;;;2554368;23;20167;-72
2022/09/08 04:48:32;;;;;;;2.63;1.58;;;20.50;99.90;;;;;;2554883;23;20104;-72
2022/09/08 04:49:32;;;;;;;2.40;1.73;;;20.60;99.90;;;;;;2567885;23;20005;-72
2022/09/08 04:50:33;;;;;;;2.47;1.63;;;20.60;99.90;;;;;;2567644;23;20076;-72
2022/09/08 04:51:34;;;;;;;2.03;1.52;;;20.60;99.90;;;;;;2554953;23;19997;-72
2022/09/08 04:52:34;;;;;;;2.75;1.55;;;20.60;99.90;;;;;;2554743;23;20505;-72
2022/09/08 04:53:36;;;;;;;3.22;1.90;;;20.60;99.90;;;;;;2553813;23;20025;-72
2022/09/08 04:54:36;;;;;;;1.90;1.52;;;20.60;99.90;;;;;;2555408;23;20008;-72
2022/09/08 04:55:40;;;;;;;3.95;1.88;;;20.60;99.90;;;;;;2555629;23;20008;-72
2022/09/08 04:56:40;;;;;;;2.80;1.65;;;20.60;99.90;;;;;;2554823;23;20351;-72
2022/09/08 04:57:41;;;;;;;2.88;1.60;;;20.60;99.90;;;;;;2554927;23;20029;-72
2022/09/08 04:58:42;;;;;;;5.47;2.05;;;20.60;99.90;;;;;;2555595;23;20329;-72
2022/09/08 04:59:43;;;;;;;3.00;1.65;;;20.60;99.90;;;;;;2555384;23;20100;-73
2022/09/08 05:00:44;;;;;;;3.35;2.00;;;20.60;99.90;;;;;;2554804;23;20009;-73
2022/09/08 05:01:45;;;;;;;2.88;2.00;;;20.60;99.90;;;;;;2554863;23;20466;-72
2022/09/08 05:02:46;;;;;;;6.32;2.90;;;20.60;99.90;;;;;;2555576;23;20731;-73
2022/09/08 05:03:51;;;;;;;3.28;2.40;;;20.60;99.90;;;;;;2554842;23;20037;-73
2022/09/08 05:04:52;;;;;;;4.28;2.13;;;20.60;99.90;;;;;;2555082;23;20016;-73
2022/09/08 05:05:52;;;;;;;4.28;2.00;;;20.70;99.90;;;;;;2554318;23;20084;-73
2022/09/08 05:06:53;;;;;;;3.70;2.22;;;20.60;99.90;;;;;;2554508;23;20024;-73
2022/09/08 05:07:53;;;;;;;3.67;2.42;;;20.60;99.90;;;;;;2555094;23;20001;-73
2022/09/08 05:08:56;;;;;;;4.50;2.70;;;20.60;99.90;;;;;;2555677;23;20013;-73
2022/09/08 05:09:57;;;;;;;3.40;2.22;;;20.60;99.90;;;;;;2555356;23;20001;-74
2022/09/08 05:10:58;;;;;;;5.95;2.13;;;20.60;99.90;;;;;;2555596;23;20088;-73
2022/09/08 05:11:59;;;;;;;6.10;2.95;;;20.60;99.90;;;;;;2555411;23;20358;-73
2022/09/08 05:13:00;;;;;;;6.65;2.40;;;20.60;99.90;;;;;;2554943;23;20083;-73
2022/09/08 05:14:02;;;;;;;5.68;3.10;;;20.60;99.90;;;;;;2555034;23;20084;-74
2022/09/08 05:15:03;;;;;;;6.43;2.63;;;20.60;99.90;;;;;;2554241;23;20457;-73
2022/09/08 05:16:06;;;;;;;5.07;3.15;;;20.60;99.90;;;;;;2555314;23;20640;-73
2022/09/08 05:17:07;;;;;;;5.05;2.65;;;20.60;99.90;;;;;;2555165;23;20040;-74
2022/09/08 05:18:07;;;;;;;3.50;2.50;;;20.60;99.90;;;;;;2554960;23;20044;-74
2022/09/08 05:19:11;;;;;;;3.20;2.40;;;20.60;99.90;;;;;;2555702;23;20019;-74
2022/09/08 05:20:12;;;;;;;5.63;2.75;;;20.60;99.90;;;;;;2554937;23;20017;-74
2022/09/08 05:21:12;;;;;;;5.00;3.05;;;20.60;99.90;;;;;;2554355;23;20041;-74
2022/09/08 05:22:13;;;;;;;6.93;2.58;;;20.60;99.90;;;;;;2554812;23;20005;-74
2022/09/08 05:23:13;;;;;;;5.60;2.65;;;20.50;99.90;;;;;;2554898;23;20005;-74
2022/09/08 05:24:14;;;;;;;4.15;2.55;;;20.50;99.90;;;;;;2555245;23;20476;-74
2022/09/08 05:25:14;;;;;;;4.60;2.72;;;20.50;99.90;;;;;;2555420;23;20449;-73
2022/09/08 05:26:17;;;;;;;7.22;3.22;;;20.50;99.90;;;;;;2555087;23;20009;-74
2022/09/08 05:27:17;;;;;;;3.55;2.58;;;20.50;99.90;;;;;;2555477;23;19997;-74
2022/09/08 05:28:18;;;;;;;4.45;3.03;;;20.50;99.90;;;;;;2555180;23;20452;-74
2022/09/08 05:29:18;;;;;;;3.45;2.38;;;20.50;99.90;;;;;;2555174;23;20001;-74
2022/09/08 05:30:19;;;;;;;4.53;2.40;;;20.40;99.90;;;;;;2554479;23;20051;-74